Terminal Aerodrome Forecast
Issued by NWS Portland, OR

Home | Current Version | Previous Version | Text Only | Print | Product List | Glossary On
Versions: 1 2 3 4 5 6 7 8 9 10 11 12 13 14 15 16 17 18 19 20 21 22 23 24 25 26 27 28 29 30 31 32 33 34
632
FTUS46 KPQR 141735
TAFSLE
TAF
KSLE 141735Z 1418/1518 19012KT P6SM -RA BKN009 OVC040
     FM142200 20010KT P6SM -RA SCT011 OVC040
     FM151000 19010KT P6SM -RA BKN015 OVC040=

USA.gov is the U.S. government's official web portal to all federal, state and local government web resources and services.